Time;durP1;ratioP1;P1;durP2;ratioP2;P2;SDS_P1;SDS_P2;PMS_P1;PMS_P2;Temp;Humidity;BMP_temperature;BMP_pressure;BME280_temperature;BME280_humidity;BME280_pressure;Samples;Min_cycle;Max_cycle;Signal;HPM_P1;HPM_P2
2023/10/04 00:01:14;;;;;;;0.10;0.10;;;;;;;-145.06;100.00;56159.19;10404493;28;20029;-67
2023/10/04 00:06:15;;;;;;;0.00;0.00;;;;;;;-145.06;100.00;56155.13;10404518;28;20052;-67
2023/10/04 00:11:15;;;;;;;0.10;0.10;;;;;;;-145.06;100.00;56169.31;10395882;28;20450;-67
2023/10/04 00:16:15;;;;;;;0.10;0.10;;;;;;;-145.06;100.00;56155.13;10400717;28;20034;-67
2023/10/04 00:21:16;;;;;;;0.10;0.10;;;;;;;-145.06;100.00;56134.88;10403910;28;20025;-67
2023/10/04 00:26:16;;;;;;;0.10;0.10;;;;;;;-145.06;100.00;56149.06;10401442;28;20412;-67
2023/10/04 00:31:16;;;;;;;0.10;0.10;;;;;;;-145.06;100.00;56098.41;10410617;28;20030;-67
2023/10/04 00:36:20;;;;;;;0.10;0.10;;;;;;;-145.06;100.00;56153.09;10413507;28;20025;-67
2023/10/04 00:41:22;;;;;;;0.10;0.10;;;;;;;-145.06;100.00;56142.97;10407204;28;20033;-67
2023/10/04 00:46:23;;;;;;;0.10;0.10;;;;;;;-145.06;100.00;56151.06;10411371;28;20108;-67
2023/10/04 00:51:25;;;;;;;0.10;0.10;;;;;;;-145.06;100.00;56140.94;10412090;28;20140;-67
2023/10/04 00:56:26;;;;;;;0.10;0.10;;;;;;;-145.06;100.00;56124.75;10410769;28;20068;-67
2023/10/04 01:01:26;;;;;;;0.10;0.10;;;;;;;-145.06;100.00;56145.00;10408242;28;20029;-67
2023/10/04 01:06:29;;;;;;;0.10;0.10;;;;;;;-145.06;100.00;56140.94;10406937;28;20049;-67
2023/10/04 01:11:33;;;;;;;0.10;0.10;;;;;;;-145.06;100.00;56134.88;10403387;28;20079;-67
2023/10/04 01:16:35;;;;;;;0.10;0.10;;;;;;;-145.06;100.00;56155.13;10409336;28;20045;-67
2023/10/04 01:21:36;;;;;;;0.10;0.10;;;;;;;-145.06;100.00;56167.28;10406317;28;20017;-67
2023/10/04 01:26:37;;;;;;;0.00;0.00;;;;;;;-145.06;100.00;56130.81;10410550;28;20379;-67
2023/10/04 01:31:40;;;;;;;0.10;0.10;;;;;;;-145.06;100.00;56140.94;10407322;28;20024;-67
2023/10/04 01:36:41;;;;;;;0.10;0.10;;;;;;;-145.06;100.00;56116.63;10409383;28;20018;-67
2023/10/04 01:41:42;;;;;;;0.10;0.10;;;;;;;-145.06;100.00;56114.59;10407048;28;20100;-67
2023/10/04 01:46:42;;;;;;;0.10;0.10;;;;;;;-145.06;100.00;56136.91;10407317;28;20548;-67
2023/10/04 01:51:42;;;;;;;0.00;0.00;;;;;;;-145.06;100.00;56140.94;10409498;28;20034;-67
2023/10/04 01:56:43;;;;;;;0.10;0.10;;;;;;;-145.06;100.00;56142.97;10407880;28;20025;-67
2023/10/04 02:01:44;;;;;;;0.10;0.10;;;;;;;-145.06;100.00;56136.91;10408191;28;20025;-67
2023/10/04 02:06:44;;;;;;;0.10;0.10;;;;;;;-145.06;100.00;56151.06;10406304;28;20205;-67
2023/10/04 02:11:44;;;;;;;0.10;0.10;;;;;;;-145.06;100.00;56147.03;10406865;28;20021;-67
2023/10/04 02:16:44;;;;;;;0.10;0.10;;;;;;;-145.06;100.00;56100.41;10409173;28;20048;-67
2023/10/04 02:21:45;;;;;;;0.10;0.10;;;;;;;-145.06;100.00;56136.91;10406306;28;20387;-67
2023/10/04 02:26:45;;;;;;;0.10;0.10;;;;;;;-145.06;100.00;56136.91;10405825;28;20056;-67
2023/10/04 02:31:45;;;;;;;0.10;0.10;;;;;;;-145.06;100.00;56147.03;10407511;28;20025;-67
2023/10/04 02:36:48;;;;;;;0.10;0.10;;;;;;;-145.06;100.00;56149.06;10406337;28;20017;-67
2023/10/04 02:41:48;;;;;;;0.10;0.10;;;;;;;-145.06;100.00;56157.16;10407971;28;20040;-67
2023/10/04 02:46:48;;;;;;;0.00;0.00;;;;;;;-145.06;100.00;56161.22;10406742;28;20017;-67
2023/10/04 02:51:49;;;;;;;0.10;0.10;;;;;;;-145.06;100.00;56171.34;10406952;28;20025;-67
2023/10/04 02:56:50;;;;;;;0.10;0.10;;;;;;;-145.06;100.00;56140.94;10400715;28;20026;-67
2023/10/04 03:01:51;;;;;;;0.10;0.10;;;;;;;-145.06;100.00;56142.97;10406549;28;20028;-67
2023/10/04 03:06:52;;;;;;;0.10;0.10;;;;;;;-145.06;100.00;56112.59;10407641;28;20013;-67
2023/10/04 03:11:53;;;;;;;0.10;0.10;;;;;;;-145.06;100.00;56132.84;10404160;28;20264;-67
2023/10/04 03:16:53;;;;;;;0.10;0.10;;;;;;;-145.06;100.00;56130.81;10403649;28;20059;-67
2023/10/04 03:21:53;;;;;;;0.10;0.10;;;;;;;-145.06;100.00;56094.34;10404546;28;20023;-67
2023/10/04 03:26:54;;;;;;;0.10;0.10;;;;;;;-145.06;100.00;56132.84;10405790;28;20021;-67
2023/10/04 03:31:54;;;;;;;0.03;0.03;;;;;;;-145.06;100.00;56108.53;10404103;28;20060;-67
2023/10/04 03:37:07;;;;;;;0.00;0.00;;;;;;;-145.06;100.00;56120.69;10406635;28;20414;-67
2023/10/04 03:42:11;;;;;;;0.10;0.10;;;;;;;-145.06;100.00;56108.53;10404028;28;20262;-68
2023/10/04 03:47:11;;;;;;;0.10;0.10;;;;;;;-145.06;100.00;56122.72;10404062;28;20049;-67
2023/10/04 03:52:12;;;;;;;0.10;0.10;;;;;;;-145.06;100.00;56124.75;10400549;28;20037;-67
2023/10/04 03:57:12;;;;;;;0.03;0.03;;;;;;;-145.06;100.00;56132.84;10398870;28;20052;-67
2023/10/04 04:02:13;;;;;;;0.10;0.10;;;;;;;-145.06;100.00;56126.75;10373419;28;20030;-67
2023/10/04 04:07:13;;;;;;;0.10;0.10;;;;;;;-145.06;100.00;56122.72;10399718;28;20013;-67
2023/10/04 04:12:15;;;;;;;0.10;0.10;;;;;;;-145.06;100.00;56094.34;10399793;28;20033;-67
2023/10/04 04:17:16;;;;;;;0.10;0.10;;;;;;;-145.06;100.00;56100.41;10393268;28;20030;-67
2023/10/04 04:22:23;;;;;;;0.10;0.10;;;;;;;-145.06;100.00;56153.09;10407440;28;20017;-67
2023/10/04 04:27:24;;;;;;;0.10;0.10;;;;;;;-145.06;100.00;56096.38;10400837;28;20068;-67
2023/10/04 04:32:27;;;;;;;0.10;0.10;;;;;;;-145.06;100.00;56124.75;10398991;28;20040;-67
2023/10/04 04:37:29;;;;;;;0.10;0.10;;;;;;;-145.06;100.00;56110.56;10375585;28;20036;-67
2023/10/04 04:42:35;;;;;;;0.10;0.10;;;;;;;-145.06;100.00;56088.25;10391837;28;20471;-67
2023/10/04 04:47:35;;;;;;;0.10;0.10;;;;;;;-145.06;100.00;56110.56;10404613;28;20048;-67
2023/10/04 04:52:36;;;;;;;0.10;0.10;;;;;;;-145.06;100.00;56114.59;10411559;28;20417;-67
2023/10/04 04:57:37;;;;;;;0.10;0.10;;;;;;;-145.06;100.00;56138.91;10407094;28;20276;-67
2023/10/04 05:02:37;;;;;;;0.10;0.10;;;;;;;-145.06;100.00;56110.56;10400327;28;20027;-67
2023/10/04 05:07:39;;;;;;;0.10;0.10;;;;;;;-145.06;100.00;56120.69;10405861;28;20364;-67
2023/10/04 05:12:39;;;;;;;0.10;0.10;;;;;;;-145.06;100.00;56118.66;10398271;28;20030;-67
2023/10/04 05:17:42;;;;;;;0.10;0.10;;;;;;;-145.06;100.00;56100.41;10406230;28;20028;-74
2023/10/04 05:22:42;;;;;;;0.10;0.10;;;;;;;-145.06;100.00;56118.66;10406258;28;20021;-67
2023/10/04 05:27:45;;;;;;;0.10;0.10;;;;;;;-145.06;100.00;56134.88;10408870;28;20017;-67
2023/10/04 05:32:46;;;;;;;0.10;0.10;;;;;;;-145.06;100.00;56104.47;10407192;28;20025;-67
2023/10/04 05:37:46;;;;;;;0.10;0.10;;;;;;;-145.06;100.00;56108.53;10407015;28;20021;-67
2023/10/04 05:42:48;;;;;;;0.00;0.00;;;;;;;-145.06;100.00;56128.78;10403806;28;20021;-67
2023/10/04 05:47:50;;;;;;;0.00;0.00;;;;;;;-145.06;100.00;56108.53;10407634;28;20014;-67
2023/10/04 05:52:51;;;;;;;0.10;0.10;;;;;;;-145.06;100.00;56104.47;10406045;28;20032;-67
2023/10/04 05:57:55;;;;;;;0.10;0.10;;;;;;;-145.06;100.00;56116.63;10406554;28;20116;-67
2023/10/04 06:02:58;;;;;;;0.10;0.10;;;;;;;-145.06;100.00;56112.59;10406008;28;20112;-67
2023/10/04 06:08:00;;;;;;;0.10;0.10;;;;;;;-145.06;100.00;56096.38;10409803;28;20107;-67
2023/10/04 06:13:00;;;;;;;0.10;0.10;;;;;;;-145.06;100.00;56149.06;10406741;28;20272;-67
2023/10/04 06:18:01;;;;;;;0.10;0.10;;;;;;;-145.06;100.00;56112.59;10402391;28;20025;-67
2023/10/04 06:23:06;;;;;;;0.10;0.10;;;;;;;-145.06;100.00;56088.25;10406667;28;20104;-67
2023/10/04 06:28:09;;;;;;;0.10;0.10;;;;;;;-145.06;100.00;56098.41;10406581;28;20020;-67
2023/10/04 06:33:11;;;;;;;0.10;0.10;;;;;;;-145.06;100.00;56126.75;10406509;28;20047;-68
2023/10/04 06:38:13;;;;;;;0.10;0.10;;;;;;;-145.06;100.00;56232.13;10403014;28;20475;-68
2023/10/04 06:43:16;;;;;;;0.10;0.10;;;;;;;-145.06;100.00;56224.03;10407113;28;20028;-67
2023/10/04 06:48:17;;;;;;;0.10;0.10;;;;;;;-145.06;100.00;56230.09;10401616;28;20534;-68
2023/10/04 06:53:17;;;;;;;0.10;0.10;;;;;;;-145.06;100.00;56222.00;10407468;28;20112;-68
2023/10/04 06:58:17;;;;;;;0.00;0.00;;;;;;;-145.06;100.00;56270.63;10406138;28;20036;-68
2023/10/04 07:03:18;;;;;;;0.10;0.10;;;;;;;-145.06;100.00;56244.28;10403862;28;20306;-68
2023/10/04 07:08:18;;;;;;;0.10;0.10;;;;;;;-145.06;100.00;56232.13;10401369;28;20018;-68
2023/10/04 07:13:18;;;;;;;0.00;0.00;;;;;;;-145.06;100.00;56165.25;10405256;28;20447;-68
2023/10/04 07:18:18;;;;;;;0.10;0.10;;;;;;;-145.06;100.00;56244.28;10399161;28;20378;-67
2023/10/04 07:23:19;;;;;;;0.10;0.10;;;;;;;-145.06;100.00;56286.84;10405246;28;20406;-68
2023/10/04 07:28:24;;;;;;;0.10;0.10;;;;;;;-145.06;100.00;56309.13;10404476;28;20085;-67
2023/10/04 07:33:25;;;;;;;0.00;0.00;;;;;;;-145.06;99.00;56373.97;10404811;28;20055;-67
2023/10/04 07:38:26;;;;;;;0.10;0.10;;;;;;;-145.06;95.24;56424.63;10404380;28;20034;-69
2023/10/04 07:43:26;;;;;;;0.10;0.10;;;;;;;-145.06;91.50;56550.28;10405579;28;20029;-68
2023/10/04 07:48:26;;;;;;;0.00;0.00;;;;;;;-145.06;91.11;56497.59;10398668;28;20113;-68
2023/10/04 07:53:27;;;;;;;0.10;0.10;;;;;;;-145.06;91.10;56517.84;10401857;28;20036;-68
2023/10/04 07:58:27;;;;;;;0.00;0.00;;;;;;;-145.06;89.60;56523.94;10401349;28;20113;-68
2023/10/04 08:03:27;;;;;;;0.10;0.10;;;;;;;-145.06;87.61;56568.53;10403203;28;20029;-68
2023/10/04 08:08:28;;;;;;;0.00;0.00;;;;;;;-145.06;86.02;56625.25;10403141;28;20030;-68
2023/10/04 08:13:28;;;;;;;0.00;0.00;;;;;;;-145.06;83.50;56667.81;10398172;28;20029;-66
2023/10/04 08:18:28;;;;;;;0.00;0.00;;;;;;;-145.06;80.91;56692.13;10393931;28;20025;-68
2023/10/04 08:23:29;;;;;;;0.10;0.10;;;;;;;-145.06;82.07;56661.75;10390385;28;20537;-66
2023/10/04 08:28:29;;;;;;;0.00;0.00;;;;;;;-145.06;82.11;56675.94;10393648;28;20482;-68
2023/10/04 08:33:32;;;;;;;0.00;0.00;;;;;;;-145.06;81.40;56706.31;10387783;28;20112;-66
2023/10/04 08:38:33;;;;;;;0.00;0.00;;;;;;;-145.06;80.42;56781.31;10387154;28;20017;-66
2023/10/04 08:43:33;;;;;;;0.00;0.00;;;;;;;-145.06;80.79;56708.34;10389614;28;20382;-66
2023/10/04 08:48:34;;;;;;;0.10;0.10;;;;;;;-145.06;81.67;56722.53;10395181;28;20014;-67
2023/10/04 08:54:15;;;;;;;0.10;0.10;;;;;;;-145.06;83.00;56675.94;10392553;28;20030;-66
2023/10/04 08:59:17;;;;;;;0.00;0.00;;;;;;;-145.06;82.98;56706.31;10395666;28;20048;-66
2023/10/04 09:04:20;;;;;;;0.10;0.10;;;;;;;-145.06;79.91;56781.31;10404264;28;20096;-66
2023/10/04 09:09:20;;;;;;;0.00;0.00;;;;;;;-145.06;79.09;56785.38;10410082;28;20013;-66
2023/10/04 09:14:21;;;;;;;0.00;0.00;;;;;;;-145.06;79.22;56799.56;10404522;28;20025;-66
2023/10/04 09:19:22;;;;;;;0.00;0.00;;;;;;;-145.06;81.65;56773.19;10407799;28;20044;-66
2023/10/04 09:24:24;;;;;;;0.00;0.00;;;;;;;-145.06;78.57;56789.41;10405775;28;20049;-66
2023/10/04 09:29:31;;;;;;;0.03;0.03;;;;;;;-145.06;79.19;56793.47;10400878;28;20048;-65
2023/10/04 09:34:33;;;;;;;0.10;0.10;;;;;;;-145.06;82.31;56777.25;10402180;28;20025;-65
2023/10/04 09:39:34;;;;;;;0.00;0.00;;;;;;;-145.06;81.88;56777.25;10400176;28;20025;-66
2023/10/04 09:44:36;;;;;;;0.00;0.00;;;;;;;-145.06;79.76;56809.69;10405992;28;20022;-66
2023/10/04 09:49:37;;;;;;;0.00;0.00;;;;;;;-145.06;81.12;56809.69;10396731;28;20379;-65
2023/10/04 09:54:38;;;;;;;0.00;0.00;;;;;;;-145.06;78.77;56817.78;10398927;28;20435;-65
2023/10/04 09:59:39;;;;;;;0.00;0.00;;;;;;;-145.06;80.10;56805.63;10405346;28;20024;-65
2023/10/04 10:04:44;;;;;;;0.00;0.00;;;;;;;-145.06;78.35;56836.03;10408596;28;20441;-65
2023/10/04 10:10:04;;;;;;;0.00;0.00;;;;;;;-145.06;83.64;56718.50;10399377;28;20026;-65
2023/10/04 10:15:05;;;;;;;0.10;0.10;;;;;;;-145.06;84.10;56740.78;10402831;28;20079;-65
2023/10/04 10:20:09;;;;;;;0.10;0.10;;;;;;;-145.06;82.43;56793.47;10406943;28;20023;-67
2023/10/04 10:25:13;;;;;;;0.08;0.08;;;;;;;-145.06;79.35;56744.84;10406243;28;20064;-65
2023/10/04 10:30:16;;;;;;;0.00;0.00;;;;;;;-145.06;84.59;56763.06;10401862;28;20017;-65
2023/10/04 10:35:48;;;;;;;0.00;0.00;;;;;;;-145.06;80.93;56752.94;10408244;28;20022;-65
2023/10/04 10:40:48;;;;;;;0.00;0.00;;;;;;;-145.06;85.03;56742.81;10398684;28;20116;-66
2023/10/04 10:45:49;;;;;;;0.00;0.00;;;;;;;-145.06;81.43;56807.66;10405532;28;20017;-65
2023/10/04 10:50:49;;;;;;;0.10;0.10;;;;;;;-145.06;77.78;56878.59;10403944;28;20018;-65
2023/10/04 10:55:49;;;;;;;0.00;0.00;;;;;;;-145.06;80.25;56840.09;10398280;28;20026;-65
2023/10/04 11:00:50;;;;;;;0.10;0.10;;;;;;;-145.06;79.27;56878.59;10398404;28;20269;-65
2023/10/04 11:05:50;;;;;;;0.00;0.00;;;;;;;-145.06;81.14;56777.25;10408272;28;20021;-65
2023/10/04 11:10:50;;;;;;;0.00;0.00;;;;;;;-145.06;80.93;56801.56;10405537;28;20502;-65
2023/10/04 11:15:52;;;;;;;0.00;0.00;;;;;;;-145.06;77.75;56862.38;10401054;28;20049;-65
2023/10/04 11:21:00;;;;;;;0.10;0.10;;;;;;;-145.06;82.10;56748.88;10401666;28;20055;-66
2023/10/04 11:26:00;;;;;;;0.00;0.00;;;;;;;-145.06;81.89;56842.13;10403944;28;20022;-65
2023/10/04 11:31:01;;;;;;;0.10;0.10;;;;;;;-145.06;82.79;56797.53;10397286;28;20028;-65
2023/10/04 11:36:02;;;;;;;0.00;0.00;;;;;;;-145.06;80.65;56858.31;10400359;28;20034;-65
2023/10/04 11:41:03;;;;;;;0.00;0.00;;;;;;;-145.06;78.29;56868.47;10398588;28;20028;-65
2023/10/04 11:46:03;;;;;;;0.00;0.00;;;;;;;-145.06;75.86;56876.56;10404799;28;20018;-66
2023/10/04 11:51:04;;;;;;;0.10;0.10;;;;;;;-145.06;76.68;56831.97;10399496;28;20029;-65
2023/10/04 11:56:07;;;;;;;0.00;0.00;;;;;;;-145.06;78.86;56821.84;10402527;28;20071;-64
2023/10/04 12:01:08;;;;;;;0.00;0.00;;;;;;;-145.06;80.23;56838.06;10401126;28;20034;-65
2023/10/04 12:06:08;;;;;;;0.00;0.00;;;;;;;-145.06;79.14;56815.75;10404155;28;20029;-65
2023/10/04 12:11:21;;;;;;;0.00;0.00;;;;;;;-145.06;80.03;56797.53;10402676;28;20117;-65
2023/10/04 12:16:22;;;;;;;0.00;0.00;;;;;;;-145.06;78.12;56846.16;10405672;28;20479;-65
2023/10/04 12:21:22;;;;;;;0.00;0.00;;;;;;;-145.06;79.38;56797.53;10398706;28;20021;-66
2023/10/04 12:26:23;;;;;;;0.00;0.00;;;;;;;-145.06;75.97;56844.13;10409615;28;20096;-66
2023/10/04 12:31:24;;;;;;;0.10;0.10;;;;;;;-145.06;80.14;56797.53;10411113;28;20108;-65
2023/10/04 12:36:25;;;;;;;0.03;0.03;;;;;;;-145.06;82.54;56748.88;10407432;28;20029;-66
2023/10/04 12:41:25;;;;;;;0.00;0.00;;;;;;;-145.06;82.65;56746.84;10412309;28;20021;-65
2023/10/04 12:46:26;;;;;;;0.10;0.10;;;;;;;-145.06;84.70;56769.16;10410807;28;20048;-65
2023/10/04 12:51:29;;;;;;;0.00;0.00;;;;;;;-145.06;86.38;56728.63;10409853;28;20022;-66
2023/10/04 12:56:29;;;;;;;0.00;0.00;;;;;;;-145.06;84.59;56761.03;10403555;28;20076;-66
2023/10/04 13:01:30;;;;;;;0.00;0.00;;;;;;;-145.06;85.94;56750.91;10403488;28;20167;-66
2023/10/04 13:06:31;;;;;;;0.00;0.00;;;;;;;-145.06;79.75;56842.13;10402239;28;20102;-66
2023/10/04 13:11:31;;;;;;;0.00;0.00;;;;;;;-145.06;80.01;56872.50;10408251;28;20079;-65
2023/10/04 13:16:33;;;;;;;0.00;0.00;;;;;;;-145.06;77.20;56846.16;10412180;28;20021;-66
2023/10/04 13:21:33;;;;;;;0.00;0.00;;;;;;;-145.06;77.33;56842.13;10404288;28;20362;-65
2023/10/04 13:26:33;;;;;;;0.10;0.10;;;;;;;-145.06;81.81;56799.56;10411905;28;20018;-66
2023/10/04 13:31:35;;;;;;;0.10;0.10;;;;;;;-145.06;81.76;56811.72;10410443;28;20025;-66
2023/10/04 13:36:35;;;;;;;0.10;0.10;;;;;;;-145.06;85.91;56757.00;10406258;28;20029;-66
2023/10/04 13:41:35;;;;;;;0.00;0.00;;;;;;;-145.06;81.96;56779.28;10404570;28;20021;-66
2023/10/04 13:46:36;;;;;;;0.10;0.10;;;;;;;-145.06;83.50;56769.16;10403503;28;20039;-65
2023/10/04 13:51:37;;;;;;;0.10;0.10;;;;;;;-145.06;84.70;56763.06;10407343;28;20494;-65
2023/10/04 13:56:37;;;;;;;0.00;0.00;;;;;;;-145.06;85.50;56730.66;10408217;28;20052;-65
2023/10/04 14:01:41;;;;;;;0.00;0.00;;;;;;;-145.06;85.24;56746.84;10405855;28;20100;-66
2023/10/04 14:06:42;;;;;;;0.00;0.00;;;;;;;-145.06;86.50;56720.50;10403102;28;20018;-65
2023/10/04 14:11:42;;;;;;;0.00;0.00;;;;;;;-145.06;85.32;56728.63;10404264;28;20017;-65
2023/10/04 14:16:42;;;;;;;0.00;0.00;;;;;;;-145.06;86.59;56682.00;10401061;28;20280;-65
2023/10/04 14:21:43;;;;;;;0.00;0.00;;;;;;;-145.06;88.31;56651.59;10404427;28;20028;-65
2023/10/04 14:26:44;;;;;;;0.00;0.00;;;;;;;-145.06;91.48;56665.78;10406628;28;20021;-65
2023/10/04 14:31:45;;;;;;;0.00;0.00;;;;;;;-145.06;93.02;56631.34;10404443;28;20022;-65
2023/10/04 14:36:45;;;;;;;0.10;0.10;;;;;;;-145.06;93.04;56643.50;10407175;28;20437;-65
2023/10/04 14:41:45;;;;;;;0.00;0.00;;;;;;;-145.06;93.73;56619.19;10402669;28;20386;-65
2023/10/04 14:46:45;;;;;;;0.10;0.10;;;;;;;-145.06;93.13;56623.25;10406639;28;20068;-66
2023/10/04 14:51:46;;;;;;;0.00;0.00;;;;;;;-145.06;93.37;56613.09;10402262;28;20025;-65
2023/10/04 14:56:47;;;;;;;0.10;0.10;;;;;;;-145.06;92.37;56643.50;10403870;28;20029;-65
2023/10/04 15:01:47;;;;;;;0.00;0.00;;;;;;;-145.06;92.50;56631.34;10405370;28;20014;-66
2023/10/04 15:06:47;;;;;;;0.10;0.10;;;;;;;-145.06;93.21;56639.44;10405366;28;20036;-67
2023/10/04 15:11:48;;;;;;;0.05;0.05;;;;;;;-145.06;93.34;56613.09;10405417;28;20063;-67
2023/10/04 15:16:49;;;;;;;0.00;0.00;;;;;;;-145.06;94.39;56602.97;10405927;28;20025;-66
2023/10/04 15:21:50;;;;;;;0.00;0.00;;;;;;;-145.06;94.64;56586.75;10403036;28;20387;-66
2023/10/04 15:26:50;;;;;;;0.00;0.00;;;;;;;-145.06;96.34;56572.56;10400321;28;20021;-66
2023/10/04 15:31:51;;;;;;;0.00;0.00;;;;;;;-145.06;95.87;56530.00;10402850;28;20111;-66
2023/10/04 15:36:51;;;;;;;0.10;0.10;;;;;;;-145.06;96.89;56542.19;10403447;28;20021;-67
2023/10/04 15:41:53;;;;;;;0.00;0.00;;;;;;;-145.06;97.78;56558.38;10406304;28;20119;-67
2023/10/04 15:46:53;;;;;;;0.10;0.10;;;;;;;-145.06;98.52;56554.34;10399366;28;20017;-66
2023/10/04 15:51:54;;;;;;;0.00;0.00;;;;;;;-145.06;99.43;56513.81;10396116;28;20029;-66
2023/10/04 15:56:54;;;;;;;0.00;0.00;;;;;;;-145.06;98.89;56544.19;10399173;28;20297;-66
2023/10/04 16:01:54;;;;;;;0.10;0.10;;;;;;;-145.06;98.89;56536.09;10408986;28;20029;-66
2023/10/04 16:06:54;;;;;;;0.00;0.00;;;;;;;-145.06;100.00;56493.53;10407207;28;20474;-66
2023/10/04 16:11:55;;;;;;;0.00;0.00;;;;;;;-145.06;100.00;56499.63;10412085;28;20068;-66
2023/10/04 16:16:55;;;;;;;0.00;0.00;;;;;;;-145.06;100.00;56515.84;10409688;28;20498;-66
2023/10/04 16:21:56;;;;;;;0.00;0.00;;;;;;;-145.06;100.00;56495.56;10408285;28;20120;-66
2023/10/04 16:26:56;;;;;;;0.10;0.10;;;;;;;-145.06;100.00;56497.59;10408979;28;20033;-66
2023/10/04 16:31:56;;;;;;;0.10;0.10;;;;;;;-145.06;100.00;56455.03;10410876;28;20025;-66
2023/10/04 16:36:56;;;;;;;0.10;0.10;;;;;;;-145.06;100.00;56471.25;10415135;28;20117;-66
2023/10/04 16:41:57;;;;;;;0.10;0.10;;;;;;;-145.06;100.00;56467.19;10404121;28;20028;-66
2023/10/04 16:46:58;;;;;;;0.10;0.10;;;;;;;-145.06;100.00;56453.00;10414348;28;20017;-66
2023/10/04 16:51:58;;;;;;;0.10;0.10;;;;;;;-145.06;100.00;56422.63;10407904;28;20083;-66
2023/10/04 16:56:58;;;;;;;0.10;0.10;;;;;;;-145.06;100.00;56471.25;10408991;28;20071;-66
2023/10/04 17:01:59;;;;;;;0.00;0.00;;;;;;;-145.06;100.00;56465.16;10408652;28;21441;-66
2023/10/04 17:07:02;;;;;;;0.10;0.10;;;;;;;-145.06;100.00;56436.81;10409882;28;20115;-66
2023/10/04 17:12:05;;;;;;;0.20;0.20;;;;;;;-145.06;100.00;56442.88;10403928;28;20079;-66
2023/10/04 17:17:10;;;;;;;0.00;0.00;;;;;;;-145.06;100.00;56483.41;10405164;28;20419;-66
2023/10/04 17:22:10;;;;;;;0.00;0.00;;;;;;;-145.06;100.00;56390.19;10402976;28;20091;-66
2023/10/04 17:27:13;;;;;;;0.00;0.00;;;;;;;-145.06;100.00;56436.81;10404169;28;20360;-66
2023/10/04 17:32:14;;;;;;;0.10;0.10;;;;;;;-145.06;100.00;56463.16;10402556;28;20268;-66
2023/10/04 17:37:14;;;;;;;0.10;0.10;;;;;;;-145.06;100.00;56440.84;10404186;28;20022;-67
2023/10/04 17:42:14;;;;;;;0.10;0.10;;;;;;;-145.06;100.00;56465.16;10403970;28;20021;-67
2023/10/04 17:47:15;;;;;;;0.10;0.10;;;;;;;-145.06;100.00;56412.47;10403849;28;20027;-67
2023/10/04 17:52:17;;;;;;;0.10;0.10;;;;;;;-145.06;100.00;56412.47;10405270;28;20025;-66
2023/10/04 17:57:19;;;;;;;0.10;0.10;;;;;;;-145.06;100.00;56424.63;10405291;28;20017;-67
2023/10/04 18:02:20;;;;;;;0.10;0.10;;;;;;;-145.06;100.00;56461.13;10402182;28;20414;-67
2023/10/04 18:07:22;;;;;;;0.10;0.10;;;;;;;-145.06;100.00;56424.63;10404208;28;20111;-66
2023/10/04 18:12:22;;;;;;;0.03;0.03;;;;;;;-145.06;100.00;56412.47;10404567;28;20021;-66
2023/10/04 18:17:23;;;;;;;0.10;0.10;;;;;;;-145.06;100.00;56422.63;10403527;28;20026;-66
2023/10/04 18:22:23;;;;;;;0.10;0.10;;;;;;;-145.06;100.00;56406.41;10396593;28;20036;-66
2023/10/04 18:27:24;;;;;;;0.10;0.10;;;;;;;-145.06;100.00;56418.56;10401499;28;20025;-65
2023/10/04 18:32:28;;;;;;;0.10;0.10;;;;;;;-145.06;100.00;56388.16;10406094;28;20017;-66
2023/10/04 18:37:29;;;;;;;0.10;0.10;;;;;;;-145.06;100.00;56392.22;10405798;28;20052;-66
2023/10/04 18:42:33;;;;;;;0.10;0.10;;;;;;;-145.06;100.00;56386.13;10403520;28;20411;-67
2023/10/04 18:47:34;;;;;;;0.10;0.10;;;;;;;-145.06;100.00;56396.28;10408188;28;20152;-67
2023/10/04 18:52:35;;;;;;;0.00;0.00;;;;;;;-145.06;100.00;56380.06;10404727;28;20043;-67
2023/10/04 18:57:36;;;;;;;0.10;0.10;;;;;;;-145.06;100.00;56398.28;10404590;28;20056;-66
2023/10/04 19:02:37;;;;;;;0.10;0.10;;;;;;;-145.06;100.00;56373.97;10407366;28;20018;-67
2023/10/04 19:07:42;;;;;;;0.10;0.10;;;;;;;-145.06;100.00;56355.75;10408318;28;20360;-66
2023/10/04 19:12:42;;;;;;;0.00;0.00;;;;;;;-145.06;100.00;56355.75;10407707;28;20033;-66
2023/10/04 19:17:44;;;;;;;0.10;0.10;;;;;;;-145.06;100.00;56347.63;10408095;28;20044;-66
2023/10/04 19:22:45;;;;;;;0.10;0.10;;;;;;;-145.06;100.00;56347.63;10407256;28;20021;-66
2023/10/04 19:27:46;;;;;;;0.10;0.10;;;;;;;-145.06;100.00;56307.09;10408598;28;20021;-66
2023/10/04 19:32:46;;;;;;;0.10;0.10;;;;;;;-145.06;100.00;56347.63;10407466;28;20025;-67
2023/10/04 19:37:47;;;;;;;0.00;0.00;;;;;;;-145.06;100.00;56296.97;10399413;28;20055;-67
2023/10/04 19:42:47;;;;;;;0.10;0.10;;;;;;;-145.06;100.00;56325.34;10398594;28;20021;-67
2023/10/04 19:47:47;;;;;;;0.10;0.10;;;;;;;-145.06;100.00;56337.50;10401617;28;20100;-67
2023/10/04 19:52:50;;;;;;;0.10;0.10;;;;;;;-145.06;100.00;56290.91;10398196;28;20032;-67
2023/10/04 19:57:51;;;;;;;0.10;0.10;;;;;;;-145.06;100.00;56292.91;10400716;28;20021;-66
2023/10/04 20:02:52;;;;;;;0.10;0.10;;;;;;;-145.06;100.00;56315.22;10398410;28;20029;-67
2023/10/04 20:07:53;;;;;;;0.10;0.10;;;;;;;-145.06;100.00;56323.31;10400260;28;20115;-67
2023/10/04 20:12:57;;;;;;;0.08;0.08;;;;;;;-145.06;100.00;56286.84;10400937;28;20144;-67
2023/10/04 20:17:57;;;;;;;;;;;;;;;-145.06;100.00;56309.13;10404834;28;20032;-67
2023/10/04 20:23:00;;;;;;;0.10;0.10;;;;;;;-145.06;100.00;56272.66;10406417;28;19996;-67
2023/10/04 20:28:03;;;;;;;0.10;0.10;;;;;;;-145.06;100.00;56307.09;10408994;28;20599;-67
2023/10/04 20:33:03;;;;;;;0.10;0.10;;;;;;;-145.06;100.00;56290.91;10403169;28;20052;-67
2023/10/04 20:38:05;;;;;;;0.10;0.10;;;;;;;-145.06;100.00;56274.69;10404965;28;20084;-67
2023/10/04 20:43:06;;;;;;;0.00;0.00;;;;;;;-145.06;100.00;56292.91;10406547;28;20075;-67
2023/10/04 20:48:07;;;;;;;0.10;0.10;;;;;;;-145.06;100.00;56272.66;10411346;28;20426;-66
2023/10/04 20:53:08;;;;;;;0.00;0.00;;;;;;;-145.06;100.00;56270.63;10414129;28;20025;-66
2023/10/04 20:58:09;;;;;;;0.10;0.10;;;;;;;-145.06;100.00;56274.69;10414724;28;20170;-67
2023/10/04 21:03:11;;;;;;;0.05;0.05;;;;;;;-145.06;100.00;56270.63;10413045;28;20029;-67
2023/10/04 21:08:12;;;;;;;0.10;0.10;;;;;;;-145.06;100.00;56266.56;10412800;28;20055;-67
2023/10/04 21:13:12;;;;;;;0.10;0.10;;;;;;;-145.06;100.00;56309.13;10411580;28;20462;-67
2023/10/04 21:18:13;;;;;;;0.10;0.10;;;;;;;-145.06;100.00;56309.13;10413353;28;20017;-68
2023/10/04 21:23:14;;;;;;;0.10;0.10;;;;;;;-145.06;100.00;56299.00;10414117;28;20021;-67
2023/10/04 21:28:15;;;;;;;0.10;0.10;;;;;;;-145.06;100.00;56325.34;10409724;28;20100;-67
2023/10/04 21:33:18;;;;;;;0.10;0.10;;;;;;;-145.06;100.00;56311.16;10413058;28;20026;-67
2023/10/04 21:38:26;;;;;;;0.10;0.10;;;;;;;-145.06;100.00;56313.19;10412758;28;20025;-67
2023/10/04 21:43:26;;;;;;;0.10;0.10;;;;;;;-145.06;100.00;56301.03;10413204;28;20025;-67
2023/10/04 21:48:29;;;;;;;0.10;0.10;;;;;;;-145.06;100.00;56288.88;10412474;28;20033;-67
2023/10/04 21:53:29;;;;;;;0.08;0.08;;;;;;;-145.06;100.00;56254.41;10412927;28;20029;-66
2023/10/04 21:58:29;;;;;;;0.10;0.10;;;;;;;-145.06;100.00;56294.94;10412019;28;20018;-68
2023/10/04 22:03:30;;;;;;;0.10;0.10;;;;;;;-145.06;100.00;56266.56;10411356;28;20021;-68
2023/10/04 22:08:31;;;;;;;0.10;0.10;;;;;;;-145.06;100.00;56288.88;10412565;28;20021;-66
2023/10/04 22:13:32;;;;;;;0.10;0.10;;;;;;;-145.06;100.00;56280.75;10410736;28;20413;-66
2023/10/04 22:18:33;;;;;;;0.10;0.10;;;;;;;-145.06;100.00;56294.94;10411000;28;20053;-68
2023/10/04 22:23:34;;;;;;;0.10;0.10;;;;;;;-145.06;100.00;56278.75;10411748;28;20045;-68
2023/10/04 22:28:34;;;;;;;0.10;0.10;;;;;;;-145.06;100.00;56294.94;10412524;28;20395;-66
2023/10/04 22:33:35;;;;;;;0.10;0.10;;;;;;;-145.06;100.00;56299.00;10412292;28;20401;-65
2023/10/04 22:38:35;;;;;;;0.00;0.00;;;;;;;-145.06;100.00;56299.00;10411141;28;20025;-67